sensor_id;sensor_type;location;lat;lon;timestamp;P1;durP1;ratioP1;P2;durP2;ratioP2
17127;SDS011;8679;50.842;4.322;2023-09-12T00:00:10;8.90;;;5.60;;
17127;SDS011;8679;50.842;4.322;2023-09-12T00:02:37;10.77;;;6.03;;
17127;SDS011;8679;50.842;4.322;2023-09-12T00:05:03;9.15;;;5.18;;
17127;SDS011;8679;50.842;4.322;2023-09-12T00:07:29;12.05;;;5.70;;
17127;SDS011;8679;50.842;4.322;2023-09-12T00:09:56;11.10;;;4.88;;
17127;SDS011;8679;50.842;4.322;2023-09-12T00:12:22;11.20;;;4.82;;
17127;SDS011;8679;50.842;4.322;2023-09-12T00:14:50;10.77;;;4.97;;
17127;SDS011;8679;50.842;4.322;2023-09-12T00:17:16;9.13;;;4.88;;
17127;SDS011;8679;50.842;4.322;2023-09-12T00:19:42;10.35;;;4.90;;
17127;SDS011;8679;50.842;4.322;2023-09-12T00:22:08;11.82;;;5.65;;
17127;SDS011;8679;50.842;4.322;2023-09-12T00:24:34;11.32;;;6.03;;
17127;SDS011;8679;50.842;4.322;2023-09-12T00:27:01;9.77;;;5.38;;
17127;SDS011;8679;50.842;4.322;2023-09-12T00:29:29;9.60;;;5.05;;
17127;SDS011;8679;50.842;4.322;2023-09-12T00:31:55;13.32;;;5.68;;
17127;SDS011;8679;50.842;4.322;2023-09-12T00:34:21;14.57;;;5.47;;
17127;SDS011;8679;50.842;4.322;2023-09-12T00:36:47;9.35;;;5.07;;
17127;SDS011;8679;50.842;4.322;2023-09-12T00:39:13;12.23;;;6.15;;
17127;SDS011;8679;50.842;4.322;2023-09-12T00:41:40;11.30;;;5.82;;
17127;SDS011;8679;50.842;4.322;2023-09-12T00:44:06;11.70;;;5.85;;
17127;SDS011;8679;50.842;4.322;2023-09-12T00:46:32;10.82;;;5.38;;
17127;SDS011;8679;50.842;4.322;2023-09-12T00:48:58;12.43;;;6.03;;
17127;SDS011;8679;50.842;4.322;2023-09-12T00:51:25;10.52;;;5.38;;
17127;SDS011;8679;50.842;4.322;2023-09-12T00:53:51;13.57;;;6.10;;
17127;SDS011;8679;50.842;4.322;2023-09-12T00:56:19;9.80;;;6.00;;
17127;SDS011;8679;50.842;4.322;2023-09-12T00:58:46;11.82;;;5.30;;
17127;SDS011;8679;50.842;4.322;2023-09-12T01:01:12;8.65;;;4.22;;
17127;SDS011;8679;50.842;4.322;2023-09-12T01:03:38;11.30;;;4.93;;
17127;SDS011;8679;50.842;4.322;2023-09-12T01:06:04;13.23;;;5.45;;
17127;SDS011;8679;50.842;4.322;2023-09-12T01:08:33;12.02;;;5.88;;
17127;SDS011;8679;50.842;4.322;2023-09-12T01:11:02;14.40;;;6.50;;
17127;SDS011;8679;50.842;4.322;2023-09-12T01:13:28;10.82;;;6.18;;
17127;SDS011;8679;50.842;4.322;2023-09-12T01:15:54;14.90;;;6.00;;
17127;SDS011;8679;50.842;4.322;2023-09-12T01:18:21;15.65;;;7.50;;
17127;SDS011;8679;50.842;4.322;2023-09-12T01:20:54;13.90;;;7.28;;
17127;SDS011;8679;50.842;4.322;2023-09-12T01:28:17;14.27;;;7.75;;
17127;SDS011;8679;50.842;4.322;2023-09-12T01:30:44;15.23;;;7.25;;
17127;SDS011;8679;50.842;4.322;2023-09-12T01:33:11;18.98;;;9.13;;
17127;SDS011;8679;50.842;4.322;2023-09-12T01:35:38;17.00;;;7.78;;
17127;SDS011;8679;50.842;4.322;2023-09-12T01:38:04;16.65;;;7.95;;
17127;SDS011;8679;50.842;4.322;2023-09-12T01:41:03;15.07;;;8.05;;
17127;SDS011;8679;50.842;4.322;2023-09-12T01:43:23;14.32;;;7.45;;
17127;SDS011;8679;50.842;4.322;2023-09-12T01:45:50;15.05;;;8.43;;
17127;SDS011;8679;50.842;4.322;2023-09-12T01:48:19;18.65;;;8.30;;
17127;SDS011;8679;50.842;4.322;2023-09-12T01:50:46;14.27;;;7.35;;
17127;SDS011;8679;50.842;4.322;2023-09-12T01:53:12;14.52;;;6.95;;
17127;SDS011;8679;50.842;4.322;2023-09-12T01:55:42;10.57;;;6.38;;
17127;SDS011;8679;50.842;4.322;2023-09-12T01:58:09;15.20;;;7.35;;
17127;SDS011;8679;50.842;4.322;2023-09-12T02:00:36;12.90;;;6.68;;
17127;SDS011;8679;50.842;4.322;2023-09-12T02:03:03;10.95;;;5.75;;
17127;SDS011;8679;50.842;4.322;2023-09-12T02:05:29;12.32;;;6.13;;
17127;SDS011;8679;50.842;4.322;2023-09-12T02:07:55;16.38;;;7.60;;
17127;SDS011;8679;50.842;4.322;2023-09-12T02:10:21;12.00;;;6.05;;
17127;SDS011;8679;50.842;4.322;2023-09-12T02:12:47;13.32;;;5.57;;
17127;SDS011;8679;50.842;4.322;2023-09-12T02:15:13;13.77;;;6.45;;
17127;SDS011;8679;50.842;4.322;2023-09-12T02:17:40;12.68;;;6.60;;
17127;SDS011;8679;50.842;4.322;2023-09-12T02:20:07;12.57;;;5.68;;
17127;SDS011;8679;50.842;4.322;2023-09-12T02:22:33;15.15;;;6.47;;
17127;SDS011;8679;50.842;4.322;2023-09-12T02:24:59;15.07;;;7.28;;
17127;SDS011;8679;50.842;4.322;2023-09-12T02:27:25;11.95;;;6.22;;
17127;SDS011;8679;50.842;4.322;2023-09-12T02:29:51;13.75;;;6.63;;
17127;SDS011;8679;50.842;4.322;2023-09-12T02:32:17;11.18;;;5.50;;
17127;SDS011;8679;50.842;4.322;2023-09-12T02:34:43;13.07;;;6.55;;
17127;SDS011;8679;50.842;4.322;2023-09-12T02:37:10;12.38;;;6.47;;
17127;SDS011;8679;50.842;4.322;2023-09-12T02:39:36;14.48;;;7.32;;
17127;SDS011;8679;50.842;4.322;2023-09-12T02:42:02;11.68;;;6.22;;
17127;SDS011;8679;50.842;4.322;2023-09-12T02:44:28;12.05;;;6.20;;
17127;SDS011;8679;50.842;4.322;2023-09-12T02:46:54;13.60;;;6.28;;
17127;SDS011;8679;50.842;4.322;2023-09-12T02:49:20;12.30;;;6.25;;
17127;SDS011;8679;50.842;4.322;2023-09-12T02:51:46;12.15;;;5.60;;
17127;SDS011;8679;50.842;4.322;2023-09-12T02:54:12;9.02;;;5.25;;
17127;SDS011;8679;50.842;4.322;2023-09-12T02:56:38;12.27;;;6.78;;
17127;SDS011;8679;50.842;4.322;2023-09-12T02:59:04;8.32;;;4.57;;
17127;SDS011;8679;50.842;4.322;2023-09-12T03:01:30;10.70;;;4.97;;
17127;SDS011;8679;50.842;4.322;2023-09-12T03:03:57;12.15;;;5.72;;
17127;SDS011;8679;50.842;4.322;2023-09-12T03:06:23;12.48;;;5.85;;
17127;SDS011;8679;50.842;4.322;2023-09-12T03:08:49;9.95;;;5.80;;
17127;SDS011;8679;50.842;4.322;2023-09-12T03:11:15;13.23;;;5.93;;
17127;SDS011;8679;50.842;4.322;2023-09-12T03:13:41;10.48;;;6.03;;
17127;SDS011;8679;50.842;4.322;2023-09-12T03:16:11;12.15;;;5.35;;
17127;SDS011;8679;50.842;4.322;2023-09-12T03:18:37;11.02;;;5.78;;
17127;SDS011;8679;50.842;4.322;2023-09-12T03:21:03;9.63;;;5.03;;
17127;SDS011;8679;50.842;4.322;2023-09-12T03:23:30;10.50;;;4.65;;
17127;SDS011;8679;50.842;4.322;2023-09-12T03:25:59;9.80;;;4.80;;
17127;SDS011;8679;50.842;4.322;2023-09-12T03:28:25;9.70;;;4.57;;
17127;SDS011;8679;50.842;4.322;2023-09-12T03:30:51;11.00;;;5.20;;
17127;SDS011;8679;50.842;4.322;2023-09-12T03:33:17;8.60;;;5.10;;
17127;SDS011;8679;50.842;4.322;2023-09-12T03:35:45;9.88;;;4.20;;
17127;SDS011;8679;50.842;4.322;2023-09-12T03:38:11;7.32;;;4.25;;
17127;SDS011;8679;50.842;4.322;2023-09-12T03:40:37;9.60;;;5.38;;
17127;SDS011;8679;50.842;4.322;2023-09-12T03:43:03;10.82;;;5.50;;
17127;SDS011;8679;50.842;4.322;2023-09-12T03:45:29;8.07;;;5.18;;
17127;SDS011;8679;50.842;4.322;2023-09-12T03:47:55;7.47;;;4.32;;
17127;SDS011;8679;50.842;4.322;2023-09-12T03:50:21;11.65;;;5.88;;
17127;SDS011;8679;50.842;4.322;2023-09-12T03:52:47;12.00;;;4.60;;
17127;SDS011;8679;50.842;4.322;2023-09-12T03:55:13;8.00;;;4.53;;
17127;SDS011;8679;50.842;4.322;2023-09-12T03:57:39;9.63;;;4.32;;
17127;SDS011;8679;50.842;4.322;2023-09-12T04:00:06;10.95;;;5.65;;
17127;SDS011;8679;50.842;4.322;2023-09-12T04:02:33;12.32;;;4.82;;
17127;SDS011;8679;50.842;4.322;2023-09-12T04:04:59;9.13;;;4.57;;
17127;SDS011;8679;50.842;4.322;2023-09-12T04:07:25;10.48;;;5.03;;
17127;SDS011;8679;50.842;4.322;2023-09-12T04:09:51;9.23;;;3.97;;
17127;SDS011;8679;50.842;4.322;2023-09-12T04:12:17;12.63;;;5.35;;
17127;SDS011;8679;50.842;4.322;2023-09-12T04:14:43;8.10;;;4.38;;
17127;SDS011;8679;50.842;4.322;2023-09-12T04:17:09;9.65;;;4.93;;
17127;SDS011;8679;50.842;4.322;2023-09-12T04:19:35;7.45;;;4.65;;
17127;SDS011;8679;50.842;4.322;2023-09-12T04:22:01;10.20;;;5.10;;
17127;SDS011;8679;50.842;4.322;2023-09-12T04:24:29;6.30;;;4.03;;
17127;SDS011;8679;50.842;4.322;2023-09-12T04:26:55;8.07;;;4.45;;
17127;SDS011;8679;50.842;4.322;2023-09-12T04:29:21;8.65;;;4.30;;
17127;SDS011;8679;50.842;4.322;2023-09-12T04:31:47;7.75;;;5.32;;
17127;SDS011;8679;50.842;4.322;2023-09-12T04:34:13;9.98;;;5.22;;
17127;SDS011;8679;50.842;4.322;2023-09-12T04:36:40;10.48;;;4.88;;
17127;SDS011;8679;50.842;4.322;2023-09-12T04:39:06;6.63;;;4.00;;
17127;SDS011;8679;50.842;4.322;2023-09-12T04:41:32;9.30;;;5.55;;
17127;SDS011;8679;50.842;4.322;2023-09-12T04:43:58;8.93;;;4.88;;
17127;SDS011;8679;50.842;4.322;2023-09-12T04:46:27;11.00;;;5.70;;
17127;SDS011;8679;50.842;4.322;2023-09-12T04:48:53;12.27;;;5.20;;
17127;SDS011;8679;50.842;4.322;2023-09-12T04:51:19;9.98;;;5.20;;
17127;SDS011;8679;50.842;4.322;2023-09-12T04:53:45;12.00;;;6.28;;
17127;SDS011;8679;50.842;4.322;2023-09-12T04:56:16;10.35;;;6.18;;
17127;SDS011;8679;50.842;4.322;2023-09-12T04:58:42;10.90;;;5.82;;
17127;SDS011;8679;50.842;4.322;2023-09-12T05:01:08;12.93;;;6.28;;
17127;SDS011;8679;50.842;4.322;2023-09-12T05:03:35;10.43;;;5.43;;
17127;SDS011;8679;50.842;4.322;2023-09-12T05:06:01;12.43;;;6.13;;
17127;SDS011;8679;50.842;4.322;2023-09-12T05:08:28;14.73;;;6.38;;
17127;SDS011;8679;50.842;4.322;2023-09-12T05:10:54;14.68;;;5.40;;
17127;SDS011;8679;50.842;4.322;2023-09-12T05:13:20;12.75;;;6.30;;
17127;SDS011;8679;50.842;4.322;2023-09-12T05:15:46;12.25;;;6.07;;
17127;SDS011;8679;50.842;4.322;2023-09-12T05:18:12;11.82;;;6.60;;
17127;SDS011;8679;50.842;4.322;2023-09-12T05:20:39;14.93;;;6.57;;
17127;SDS011;8679;50.842;4.322;2023-09-12T05:23:05;11.57;;;5.40;;
17127;SDS011;8679;50.842;4.322;2023-09-12T05:25:31;13.05;;;7.00;;
17127;SDS011;8679;50.842;4.322;2023-09-12T05:27:57;10.55;;;5.35;;
17127;SDS011;8679;50.842;4.322;2023-09-12T05:30:23;10.55;;;5.55;;
17127;SDS011;8679;50.842;4.322;2023-09-12T05:32:49;17.38;;;6.30;;
17127;SDS011;8679;50.842;4.322;2023-09-12T05:35:15;10.27;;;5.82;;
17127;SDS011;8679;50.842;4.322;2023-09-12T05:37:41;12.23;;;5.55;;
17127;SDS011;8679;50.842;4.322;2023-09-12T05:40:07;12.80;;;6.85;;
17127;SDS011;8679;50.842;4.322;2023-09-12T05:42:35;10.70;;;6.07;;
17127;SDS011;8679;50.842;4.322;2023-09-12T05:45:01;16.33;;;6.78;;
17127;SDS011;8679;50.842;4.322;2023-09-12T05:47:27;16.08;;;6.95;;
17127;SDS011;8679;50.842;4.322;2023-09-12T05:49:53;18.58;;;6.82;;
17127;SDS011;8679;50.842;4.322;2023-09-12T05:52:19;9.80;;;5.57;;
17127;SDS011;8679;50.842;4.322;2023-09-12T05:54:45;12.05;;;5.35;;
17127;SDS011;8679;50.842;4.322;2023-09-12T05:57:11;11.63;;;7.03;;
17127;SDS011;8679;50.842;4.322;2023-09-12T05:59:38;13.90;;;5.82;;
17127;SDS011;8679;50.842;4.322;2023-09-12T06:02:04;11.85;;;6.38;;
17127;SDS011;8679;50.842;4.322;2023-09-12T06:04:34;12.98;;;6.43;;
17127;SDS011;8679;50.842;4.322;2023-09-12T06:07:00;13.40;;;6.25;;
17127;SDS011;8679;50.842;4.322;2023-09-12T06:09:27;15.30;;;7.07;;
17127;SDS011;8679;50.842;4.322;2023-09-12T06:11:54;16.13;;;5.75;;
17127;SDS011;8679;50.842;4.322;2023-09-12T06:14:20;14.85;;;6.88;;
17127;SDS011;8679;50.842;4.322;2023-09-12T06:16:47;13.10;;;6.47;;
17127;SDS011;8679;50.842;4.322;2023-09-12T06:19:13;14.02;;;7.10;;
17127;SDS011;8679;50.842;4.322;2023-09-12T06:21:40;11.55;;;5.70;;
17127;SDS011;8679;50.842;4.322;2023-09-12T06:24:12;10.20;;;5.80;;
17127;SDS011;8679;50.842;4.322;2023-09-12T06:26:38;11.18;;;6.05;;
17127;SDS011;8679;50.842;4.322;2023-09-12T06:29:05;14.13;;;7.35;;
17127;SDS011;8679;50.842;4.322;2023-09-12T06:31:31;13.50;;;5.82;;
17127;SDS011;8679;50.842;4.322;2023-09-12T06:33:57;12.65;;;6.13;;
17127;SDS011;8679;50.842;4.322;2023-09-12T06:36:26;16.27;;;6.57;;
17127;SDS011;8679;50.842;4.322;2023-09-12T06:38:54;13.55;;;6.00;;
17127;SDS011;8679;50.842;4.322;2023-09-12T06:41:20;10.52;;;5.00;;
17127;SDS011;8679;50.842;4.322;2023-09-12T06:43:47;12.88;;;6.65;;
17127;SDS011;8679;50.842;4.322;2023-09-12T06:46:13;8.25;;;4.35;;
17127;SDS011;8679;50.842;4.322;2023-09-12T06:48:39;12.40;;;5.93;;
17127;SDS011;8679;50.842;4.322;2023-09-12T06:51:06;8.68;;;4.53;;
17127;SDS011;8679;50.842;4.322;2023-09-12T06:53:33;9.27;;;5.53;;
17127;SDS011;8679;50.842;4.322;2023-09-12T06:55:59;10.48;;;5.00;;
17127;SDS011;8679;50.842;4.322;2023-09-12T06:58:25;11.77;;;4.82;;
17127;SDS011;8679;50.842;4.322;2023-09-12T07:00:51;10.50;;;5.43;;
17127;SDS011;8679;50.842;4.322;2023-09-12T07:03:17;10.43;;;4.82;;
17127;SDS011;8679;50.842;4.322;2023-09-12T07:05:43;7.93;;;4.88;;
17127;SDS011;8679;50.842;4.322;2023-09-12T07:08:10;8.77;;;4.72;;
17127;SDS011;8679;50.842;4.322;2023-09-12T07:10:36;11.88;;;5.30;;
17127;SDS011;8679;50.842;4.322;2023-09-12T07:13:02;9.10;;;5.50;;
17127;SDS011;8679;50.842;4.322;2023-09-12T07:15:28;10.52;;;5.82;;
17127;SDS011;8679;50.842;4.322;2023-09-12T07:17:54;14.23;;;5.10;;
17127;SDS011;8679;50.842;4.322;2023-09-12T07:20:21;12.95;;;5.57;;
17127;SDS011;8679;50.842;4.322;2023-09-12T07:22:48;12.38;;;5.72;;
17127;SDS011;8679;50.842;4.322;2023-09-12T07:25:15;12.73;;;6.30;;
17127;SDS011;8679;50.842;4.322;2023-09-12T07:27:41;9.50;;;5.18;;
17127;SDS011;8679;50.842;4.322;2023-09-12T07:30:07;8.52;;;5.38;;
17127;SDS011;8679;50.842;4.322;2023-09-12T07:32:34;12.65;;;6.53;;
17127;SDS011;8679;50.842;4.322;2023-09-12T07:35:00;13.95;;;7.18;;
17127;SDS011;8679;50.842;4.322;2023-09-12T07:37:26;13.80;;;5.68;;
17127;SDS011;8679;50.842;4.322;2023-09-12T07:39:52;9.00;;;4.82;;
17127;SDS011;8679;50.842;4.322;2023-09-12T07:42:21;9.68;;;5.38;;
17127;SDS011;8679;50.842;4.322;2023-09-12T07:44:47;7.35;;;4.63;;
17127;SDS011;8679;50.842;4.322;2023-09-12T07:47:13;10.57;;;5.78;;
17127;SDS011;8679;50.842;4.322;2023-09-12T07:49:40;10.40;;;5.78;;
17127;SDS011;8679;50.842;4.322;2023-09-12T07:52:06;5.97;;;4.22;;
17127;SDS011;8679;50.842;4.322;2023-09-12T07:54:32;8.63;;;5.15;;
17127;SDS011;8679;50.842;4.322;2023-09-12T07:56:58;8.98;;;4.47;;
17127;SDS011;8679;50.842;4.322;2023-09-12T07:59:25;9.77;;;5.28;;
17127;SDS011;8679;50.842;4.322;2023-09-12T08:01:51;12.02;;;5.53;;
17127;SDS011;8679;50.842;4.322;2023-09-12T08:04:17;8.43;;;5.22;;
17127;SDS011;8679;50.842;4.322;2023-09-12T08:06:43;9.65;;;5.30;;
17127;SDS011;8679;50.842;4.322;2023-09-12T08:09:09;9.50;;;4.32;;
17127;SDS011;8679;50.842;4.322;2023-09-12T08:11:35;7.75;;;4.07;;
17127;SDS011;8679;50.842;4.322;2023-09-12T08:14:01;7.50;;;4.13;;
17127;SDS011;8679;50.842;4.322;2023-09-12T08:16:27;10.82;;;4.45;;
17127;SDS011;8679;50.842;4.322;2023-09-12T08:18:53;9.27;;;5.05;;
17127;SDS011;8679;50.842;4.322;2023-09-12T08:21:20;7.05;;;4.22;;
17127;SDS011;8679;50.842;4.322;2023-09-12T08:23:46;9.57;;;5.45;;
17127;SDS011;8679;50.842;4.322;2023-09-12T08:26:12;8.02;;;4.65;;
17127;SDS011;8679;50.842;4.322;2023-09-12T08:28:38;6.32;;;4.15;;
17127;SDS011;8679;50.842;4.322;2023-09-12T08:31:04;5.82;;;3.55;;
17127;SDS011;8679;50.842;4.322;2023-09-12T08:33:30;5.00;;;3.10;;
17127;SDS011;8679;50.842;4.322;2023-09-12T08:35:56;6.88;;;3.92;;
17127;SDS011;8679;50.842;4.322;2023-09-12T08:38:22;11.63;;;4.25;;
17127;SDS011;8679;50.842;4.322;2023-09-12T08:40:48;12.02;;;4.90;;
17127;SDS011;8679;50.842;4.322;2023-09-12T08:43:15;8.57;;;4.72;;
17127;SDS011;8679;50.842;4.322;2023-09-12T08:45:41;10.07;;;4.22;;
17127;SDS011;8679;50.842;4.322;2023-09-12T08:48:11;9.15;;;4.97;;
17127;SDS011;8679;50.842;4.322;2023-09-12T08:50:37;7.72;;;4.10;;
17127;SDS011;8679;50.842;4.322;2023-09-12T08:53:04;7.50;;;5.07;;
17127;SDS011;8679;50.842;4.322;2023-09-12T08:55:30;8.70;;;4.38;;
17127;SDS011;8679;50.842;4.322;2023-09-12T08:58:04;13.32;;;6.07;;
17127;SDS011;8679;50.842;4.322;2023-09-12T09:00:30;11.02;;;4.97;;
17127;SDS011;8679;50.842;4.322;2023-09-12T09:02:56;14.50;;;6.63;;
17127;SDS011;8679;50.842;4.322;2023-09-12T09:05:23;9.65;;;5.40;;
17127;SDS011;8679;50.842;4.322;2023-09-12T09:07:49;12.25;;;5.35;;
17127;SDS011;8679;50.842;4.322;2023-09-12T09:10:16;11.43;;;6.38;;
17127;SDS011;8679;50.842;4.322;2023-09-12T09:12:44;10.85;;;5.63;;
17127;SDS011;8679;50.842;4.322;2023-09-12T09:17:48;10.65;;;5.32;;
17127;SDS011;8679;50.842;4.322;2023-09-12T09:20:27;14.85;;;6.00;;
17127;SDS011;8679;50.842;4.322;2023-09-12T09:25:23;13.63;;;5.55;;
17127;SDS011;8679;50.842;4.322;2023-09-12T09:27:49;9.63;;;4.85;;
17127;SDS011;8679;50.842;4.322;2023-09-12T09:30:15;9.45;;;5.80;;
17127;SDS011;8679;50.842;4.322;2023-09-12T09:32:41;8.32;;;3.88;;
17127;SDS011;8679;50.842;4.322;2023-09-12T09:35:07;9.48;;;5.28;;
17127;SDS011;8679;50.842;4.322;2023-09-12T09:37:35;10.90;;;5.30;;
17127;SDS011;8679;50.842;4.322;2023-09-12T09:40:01;9.52;;;5.60;;
17127;SDS011;8679;50.842;4.322;2023-09-12T09:42:30;7.60;;;4.32;;
17127;SDS011;8679;50.842;4.322;2023-09-12T09:44:56;14.63;;;5.40;;
17127;SDS011;8679;50.842;4.322;2023-09-12T09:47:22;10.32;;;4.78;;
17127;SDS011;8679;50.842;4.322;2023-09-12T09:49:48;10.93;;;5.68;;
17127;SDS011;8679;50.842;4.322;2023-09-12T09:52:18;9.20;;;4.43;;
17127;SDS011;8679;50.842;4.322;2023-09-12T09:54:51;10.15;;;3.92;;
17127;SDS011;8679;50.842;4.322;2023-09-12T09:57:17;9.65;;;4.60;;
17127;SDS011;8679;50.842;4.322;2023-09-12T09:59:43;8.07;;;4.13;;
17127;SDS011;8679;50.842;4.322;2023-09-12T10:02:16;9.60;;;5.20;;
17127;SDS011;8679;50.842;4.322;2023-09-12T10:04:43;8.60;;;4.80;;
17127;SDS011;8679;50.842;4.322;2023-09-12T10:07:10;8.95;;;4.50;;
17127;SDS011;8679;50.842;4.322;2023-09-12T10:09:36;8.68;;;3.90;;
17127;SDS011;8679;50.842;4.322;2023-09-12T10:12:02;5.15;;;3.17;;
17127;SDS011;8679;50.842;4.322;2023-09-12T10:14:29;10.20;;;4.72;;
17127;SDS011;8679;50.842;4.322;2023-09-12T10:17:02;7.35;;;3.72;;
17127;SDS011;8679;50.842;4.322;2023-09-12T10:19:32;4.85;;;3.15;;
17127;SDS011;8679;50.842;4.322;2023-09-12T10:22:00;7.32;;;3.78;;
17127;SDS011;8679;50.842;4.322;2023-09-12T10:24:29;7.70;;;3.33;;
17127;SDS011;8679;50.842;4.322;2023-09-12T10:26:56;5.03;;;2.75;;
17127;SDS011;8679;50.842;4.322;2023-09-12T10:29:23;7.30;;;3.53;;
17127;SDS011;8679;50.842;4.322;2023-09-12T10:31:49;4.03;;;2.70;;
17127;SDS011;8679;50.842;4.322;2023-09-12T10:34:15;4.32;;;2.47;;
17127;SDS011;8679;50.842;4.322;2023-09-12T10:36:42;7.65;;;2.63;;
17127;SDS011;8679;50.842;4.322;2023-09-12T10:39:12;3.72;;;2.65;;
17127;SDS011;8679;50.842;4.322;2023-09-12T10:41:39;3.03;;;2.33;;
17127;SDS011;8679;50.842;4.322;2023-09-12T10:44:11;3.17;;;2.38;;
17127;SDS011;8679;50.842;4.322;2023-09-12T10:46:40;6.90;;;3.60;;
17127;SDS011;8679;50.842;4.322;2023-09-12T10:49:07;2.90;;;1.98;;
17127;SDS011;8679;50.842;4.322;2023-09-12T10:51:43;3.55;;;2.40;;
17127;SDS011;8679;50.842;4.322;2023-09-12T10:54:12;4.53;;;2.53;;
17127;SDS011;8679;50.842;4.322;2023-09-12T10:56:38;4.45;;;2.40;;
17127;SDS011;8679;50.842;4.322;2023-09-12T11:01:35;5.00;;;2.80;;
17127;SDS011;8679;50.842;4.322;2023-09-12T11:06:49;3.20;;;2.40;;
17127;SDS011;8679;50.842;4.322;2023-09-12T11:09:15;3.85;;;2.53;;
17127;SDS011;8679;50.842;4.322;2023-09-12T11:11:43;5.22;;;3.22;;
17127;SDS011;8679;50.842;4.322;2023-09-12T11:14:11;3.38;;;2.08;;
17127;SDS011;8679;50.842;4.322;2023-09-12T11:16:37;4.03;;;2.47;;
17127;SDS011;8679;50.842;4.322;2023-09-12T11:21:51;3.75;;;2.35;;
17127;SDS011;8679;50.842;4.322;2023-09-12T11:24:18;3.67;;;2.63;;
17127;SDS011;8679;50.842;4.322;2023-09-12T11:27:05;3.25;;;2.30;;
17127;SDS011;8679;50.842;4.322;2023-09-12T11:29:37;4.00;;;2.10;;
17127;SDS011;8679;50.842;4.322;2023-09-12T11:32:03;5.28;;;2.17;;
17127;SDS011;8679;50.842;4.322;2023-09-12T11:34:36;2.95;;;1.92;;
17127;SDS011;8679;50.842;4.322;2023-09-12T11:37:02;2.90;;;1.73;;
17127;SDS011;8679;50.842;4.322;2023-09-12T11:39:30;3.72;;;2.22;;
17127;SDS011;8679;50.842;4.322;2023-09-12T11:41:58;2.22;;;1.67;;
17127;SDS011;8679;50.842;4.322;2023-09-12T11:44:24;6.18;;;3.10;;
17127;SDS011;8679;50.842;4.322;2023-09-12T11:46:52;3.25;;;2.22;;
17127;SDS011;8679;50.842;4.322;2023-09-12T11:49:18;2.45;;;1.85;;
17127;SDS011;8679;50.842;4.322;2023-09-12T11:51:52;3.83;;;2.00;;
17127;SDS011;8679;50.842;4.322;2023-09-12T11:54:19;3.67;;;2.38;;
17127;SDS011;8679;50.842;4.322;2023-09-12T11:56:48;2.78;;;1.77;;
17127;SDS011;8679;50.842;4.322;2023-09-12T11:59:15;3.50;;;2.08;;
17127;SDS011;8679;50.842;4.322;2023-09-12T12:01:44;6.10;;;1.80;;
17127;SDS011;8679;50.842;4.322;2023-09-12T12:04:11;4.53;;;2.28;;
17127;SDS011;8679;50.842;4.322;2023-09-12T12:06:37;2.45;;;1.85;;
17127;SDS011;8679;50.842;4.322;2023-09-12T12:09:03;2.70;;;1.98;;
17127;SDS011;8679;50.842;4.322;2023-09-12T12:11:30;4.72;;;1.67;;
17127;SDS011;8679;50.842;4.322;2023-09-12T12:14:08;2.85;;;1.50;;
17127;SDS011;8679;50.842;4.322;2023-09-12T12:16:34;2.55;;;1.55;;
17127;SDS011;8679;50.842;4.322;2023-09-12T12:19:01;2.88;;;1.75;;
17127;SDS011;8679;50.842;4.322;2023-09-12T12:21:27;2.40;;;1.27;;
17127;SDS011;8679;50.842;4.322;2023-09-12T12:23:57;2.08;;;1.40;;
17127;SDS011;8679;50.842;4.322;2023-09-12T12:26:24;2.45;;;1.40;;
17127;SDS011;8679;50.842;4.322;2023-09-12T12:28:51;3.45;;;2.03;;
17127;SDS011;8679;50.842;4.322;2023-09-12T12:31:17;1.40;;;1.02;;
17127;SDS011;8679;50.842;4.322;2023-09-12T12:33:50;3.60;;;1.52;;
17127;SDS011;8679;50.842;4.322;2023-09-12T12:36:16;3.10;;;2.00;;
17127;SDS011;8679;50.842;4.322;2023-09-12T12:38:42;2.13;;;1.50;;
17127;SDS011;8679;50.842;4.322;2023-09-12T12:41:11;1.85;;;1.67;;
17127;SDS011;8679;50.842;4.322;2023-09-12T12:43:41;2.08;;;1.45;;
17127;SDS011;8679;50.842;4.322;2023-09-12T12:46:11;4.25;;;1.85;;
17127;SDS011;8679;50.842;4.322;2023-09-12T12:48:37;4.13;;;2.15;;
17127;SDS011;8679;50.842;4.322;2023-09-12T12:53:46;1.85;;;1.48;;
17127;SDS011;8679;50.842;4.322;2023-09-12T12:56:13;2.42;;;1.40;;
17127;SDS011;8679;50.842;4.322;2023-09-12T12:58:44;2.78;;;1.60;;
17127;SDS011;8679;50.842;4.322;2023-09-12T13:01:10;3.70;;;1.70;;
17127;SDS011;8679;50.842;4.322;2023-09-12T13:03:36;2.13;;;1.33;;
17127;SDS011;8679;50.842;4.322;2023-09-12T13:06:02;3.55;;;2.13;;
17127;SDS011;8679;50.842;4.322;2023-09-12T13:08:29;3.35;;;1.75;;
17127;SDS011;8679;50.842;4.322;2023-09-12T13:10:55;3.08;;;1.77;;
17127;SDS011;8679;50.842;4.322;2023-09-12T13:13:21;3.80;;;2.05;;
17127;SDS011;8679;50.842;4.322;2023-09-12T13:15:47;5.68;;;1.77;;
17127;SDS011;8679;50.842;4.322;2023-09-12T13:18:13;3.53;;;1.75;;
17127;SDS011;8679;50.842;4.322;2023-09-12T13:20:39;3.35;;;2.28;;
17127;SDS011;8679;50.842;4.322;2023-09-12T13:23:05;3.25;;;1.92;;
17127;SDS011;8679;50.842;4.322;2023-09-12T13:25:31;4.70;;;2.53;;
17127;SDS011;8679;50.842;4.322;2023-09-12T13:27:57;6.28;;;2.80;;
17127;SDS011;8679;50.842;4.322;2023-09-12T13:30:24;4.68;;;2.22;;
17127;SDS011;8679;50.842;4.322;2023-09-12T13:32:50;2.83;;;2.03;;
17127;SDS011;8679;50.842;4.322;2023-09-12T13:35:16;4.80;;;2.40;;
17127;SDS011;8679;50.842;4.322;2023-09-12T13:37:42;4.07;;;2.60;;
17127;SDS011;8679;50.842;4.322;2023-09-12T13:40:08;7.63;;;3.17;;
17127;SDS011;8679;50.842;4.322;2023-09-12T13:42:34;3.40;;;2.25;;
17127;SDS011;8679;50.842;4.322;2023-09-12T13:45:00;3.85;;;2.25;;
17127;SDS011;8679;50.842;4.322;2023-09-12T13:47:27;11.43;;;3.22;;
17127;SDS011;8679;50.842;4.322;2023-09-12T13:49:53;3.80;;;2.47;;
17127;SDS011;8679;50.842;4.322;2023-09-12T13:52:20;3.38;;;2.00;;
17127;SDS011;8679;50.842;4.322;2023-09-12T13:54:46;3.17;;;2.22;;
17127;SDS011;8679;50.842;4.322;2023-09-12T13:57:12;4.78;;;2.70;;
17127;SDS011;8679;50.842;4.322;2023-09-12T13:59:38;5.35;;;2.30;;
17127;SDS011;8679;50.842;4.322;2023-09-12T14:02:04;5.95;;;1.92;;
17127;SDS011;8679;50.842;4.322;2023-09-12T14:04:30;4.38;;;2.63;;
17127;SDS011;8679;50.842;4.322;2023-09-12T14:06:57;3.97;;;2.72;;
17127;SDS011;8679;50.842;4.322;2023-09-12T14:09:23;4.00;;;2.30;;
17127;SDS011;8679;50.842;4.322;2023-09-12T14:11:49;5.45;;;2.63;;
17127;SDS011;8679;50.842;4.322;2023-09-12T14:14:15;3.80;;;1.90;;
17127;SDS011;8679;50.842;4.322;2023-09-12T14:16:42;3.55;;;1.98;;
17127;SDS011;8679;50.842;4.322;2023-09-12T14:19:08;3.00;;;2.00;;
17127;SDS011;8679;50.842;4.322;2023-09-12T14:21:35;3.22;;;1.88;;
17127;SDS011;8679;50.842;4.322;2023-09-12T14:24:01;3.80;;;2.03;;
17127;SDS011;8679;50.842;4.322;2023-09-12T14:26:28;5.43;;;2.63;;
17127;SDS011;8679;50.842;4.322;2023-09-12T14:28:54;3.90;;;2.42;;
17127;SDS011;8679;50.842;4.322;2023-09-12T14:31:21;2.63;;;2.03;;
17127;SDS011;8679;50.842;4.322;2023-09-12T14:33:48;5.28;;;2.08;;
17127;SDS011;8679;50.842;4.322;2023-09-12T14:36:14;4.20;;;2.60;;
17127;SDS011;8679;50.842;4.322;2023-09-12T14:38:40;2.38;;;1.85;;
17127;SDS011;8679;50.842;4.322;2023-09-12T14:41:06;5.18;;;2.35;;
17127;SDS011;8679;50.842;4.322;2023-09-12T14:43:32;2.70;;;2.03;;
17127;SDS011;8679;50.842;4.322;2023-09-12T14:45:58;4.10;;;2.38;;
17127;SDS011;8679;50.842;4.322;2023-09-12T14:48:25;3.38;;;2.13;;
17127;SDS011;8679;50.842;4.322;2023-09-12T14:50:52;5.47;;;2.65;;
17127;SDS011;8679;50.842;4.322;2023-09-12T14:53:18;3.25;;;2.10;;
17127;SDS011;8679;50.842;4.322;2023-09-12T14:55:44;3.08;;;2.20;;
17127;SDS011;8679;50.842;4.322;2023-09-12T14:58:10;2.72;;;1.92;;
17127;SDS011;8679;50.842;4.322;2023-09-12T15:00:36;4.70;;;2.47;;
17127;SDS011;8679;50.842;4.322;2023-09-12T15:03:03;4.40;;;2.55;;
17127;SDS011;8679;50.842;4.322;2023-09-12T15:05:29;3.28;;;1.88;;
17127;SDS011;8679;50.842;4.322;2023-09-12T15:07:55;3.70;;;2.40;;
17127;SDS011;8679;50.842;4.322;2023-09-12T15:10:22;2.42;;;1.90;;
17127;SDS011;8679;50.842;4.322;2023-09-12T15:12:48;2.58;;;1.70;;